createdAt,value
2023-04-22T00:00:23.937Z,3.55
2023-04-22T00:02:27.548Z,3.42
2023-04-22T00:04:31.155Z,3.60
2023-04-22T00:06:34.628Z,3.10
2023-04-22T00:08:38.033Z,3.15
2023-04-22T00:10:41.382Z,3.10
2023-04-22T00:12:44.721Z,3.38
2023-04-22T00:14:49.525Z,3.30
2023-04-22T00:16:52.851Z,3.67
2023-04-22T00:18:56.160Z,3.28
2023-04-22T00:20:59.467Z,3.30
2023-04-22T00:23:02.733Z,2.97
2023-04-22T00:25:06.968Z,3.55
2023-04-22T00:27:10.320Z,3.42
2023-04-22T00:29:13.660Z,3.40
2023-04-22T00:31:18.464Z,3.40
2023-04-22T00:33:21.773Z,3.30
2023-04-22T00:35:25.202Z,3.80
2023-04-22T00:37:28.745Z,3.33
2023-04-22T00:39:32.334Z,3.38
2023-04-22T00:41:35.936Z,3.55
2023-04-22T00:43:39.221Z,3.70
2023-04-22T00:45:43.945Z,3.25
2023-04-22T00:47:49.489Z,3.15
2023-04-22T00:49:53.113Z,3.75
2023-04-22T00:51:56.418Z,3.60
2023-04-22T00:54:01.898Z,3.28
2023-04-22T00:56:05.721Z,3.65
2023-04-22T00:58:09.902Z,3.50
2023-04-22T01:00:13.929Z,3.10
2023-04-22T01:02:17.410Z,3.35
2023-04-22T01:04:23.034Z,3.40
2023-04-22T01:06:26.926Z,3.17
2023-04-22T01:08:30.910Z,3.55
2023-04-22T01:10:34.285Z,3.70
2023-04-22T01:12:37.618Z,3.58
2023-04-22T01:14:41.115Z,3.60
2023-04-22T01:16:45.542Z,3.75
2023-04-22T01:18:49.032Z,3.70
2023-04-22T01:20:54.106Z,3.45
2023-04-22T01:22:58.227Z,3.70
2023-04-22T01:25:03.758Z,3.53
2023-04-22T01:27:07.348Z,3.70
2023-04-22T01:29:10.848Z,3.90
2023-04-22T01:31:14.660Z,3.65
2023-04-22T01:33:18.412Z,3.80
2023-04-22T01:35:22.012Z,3.85
2023-04-22T01:37:25.319Z,3.50
2023-04-22T01:39:28.825Z,3.65
2023-04-22T01:41:34.362Z,3.42
2023-04-22T01:43:37.992Z,3.67
2023-04-22T01:45:41.382Z,4.30
2023-04-22T01:47:45.303Z,3.92
2023-04-22T01:49:48.706Z,3.70
2023-04-22T01:51:52.012Z,3.63
2023-04-22T01:53:56.602Z,3.97
2023-04-22T01:56:01.122Z,3.63
2023-04-22T01:58:06.602Z,3.83
2023-04-22T02:00:11.304Z,4.00
2023-04-22T02:02:21.222Z,3.85
2023-04-22T02:04:24.608Z,3.85
2023-04-22T02:06:28.245Z,4.55
2023-04-22T02:08:31.818Z,3.90
2023-04-22T02:10:35.242Z,3.83
2023-04-22T02:12:38.657Z,4.07
2023-04-22T02:14:43.414Z,3.95
2023-04-22T02:16:47.368Z,4.45
2023-04-22T02:18:50.669Z,4.65
2023-04-22T02:20:53.986Z,4.22
2023-04-22T02:22:57.348Z,4.20
2023-04-22T02:25:01.397Z,4.60
2023-04-22T02:27:04.831Z,4.32
2023-04-22T02:29:08.455Z,4.03
2023-04-22T02:31:13.228Z,4.57
2023-04-22T02:33:17.285Z,4.50
2023-04-22T02:35:20.930Z,4.28
2023-04-22T02:37:27.282Z,4.60
2023-04-22T02:39:31.536Z,4.32
2023-04-22T02:41:35.103Z,4.43
2023-04-22T02:43:38.454Z,4.63
2023-04-22T02:45:41.979Z,4.60
2023-04-22T02:47:47.011Z,4.55
2023-04-22T02:49:51.625Z,4.40
2023-04-22T02:51:55.233Z,4.70
2023-04-22T02:53:58.588Z,4.47
2023-04-22T02:56:02.035Z,4.32
2023-04-22T02:58:05.372Z,4.10
2023-04-22T03:00:10.431Z,4.90
2023-04-22T03:02:13.891Z,4.70
2023-04-22T03:04:36.305Z,5.00
2023-04-22T03:06:39.637Z,4.47
2023-04-22T03:08:42.965Z,4.82
2023-04-22T03:10:46.329Z,4.40
2023-04-22T03:12:50.182Z,4.60
2023-04-22T03:14:53.606Z,4.47
2023-04-22T03:16:58.874Z,4.70
2023-04-22T03:19:02.820Z,4.78
2023-04-22T03:21:08.590Z,5.20
2023-04-22T03:23:11.952Z,4.75
2023-04-22T03:25:15.419Z,4.90
2023-04-22T03:27:28.276Z,5.30
2023-04-22T03:29:31.701Z,5.43
2023-04-22T03:31:35.352Z,4.60
2023-04-22T03:33:38.788Z,5.00
2023-04-22T03:35:49.839Z,4.70
2023-04-22T03:37:55.365Z,4.90
2023-04-22T03:40:05.670Z,5.22
2023-04-22T03:42:09.321Z,5.50
2023-04-22T03:44:17.520Z,5.10
2023-04-22T03:46:22.056Z,5.45
2023-04-22T03:49:00.937Z,5.10
2023-04-22T03:51:08.795Z,5.15
2023-04-22T03:53:15.311Z,5.32
2023-04-22T03:55:18.680Z,5.10
2023-04-22T03:57:22.625Z,5.80
2023-04-22T03:59:25.979Z,5.15
2023-04-22T04:01:29.235Z,5.30
2023-04-22T04:03:36.558Z,5.28
2023-04-22T04:05:40.294Z,5.47
2023-04-22T04:07:44.049Z,5.03
2023-04-22T04:09:48.731Z,5.60
2023-04-22T04:11:54.526Z,5.45
2023-04-22T04:13:57.809Z,5.22
2023-04-22T04:16:05.219Z,6.45
2023-04-22T04:18:09.744Z,5.60
2023-04-22T04:20:13.887Z,5.53
2023-04-22T04:22:17.060Z,6.05
2023-04-22T04:24:28.344Z,5.60
2023-04-22T04:26:39.755Z,5.68
2023-04-22T04:28:49.276Z,6.07
2023-04-22T04:30:54.701Z,5.32
2023-04-22T04:32:58.727Z,5.88
2023-04-22T04:35:03.269Z,5.85
2023-04-22T04:37:06.640Z,6.05
2023-04-22T04:39:30.842Z,5.75
2023-04-22T04:41:34.627Z,6.30
2023-04-22T04:43:40.977Z,5.93
2023-04-22T04:45:59.544Z,6.30
2023-04-22T04:48:10.082Z,5.93
2023-04-22T04:50:17.125Z,5.93
2023-04-22T04:52:21.244Z,6.10
2023-04-22T04:54:24.544Z,6.00
2023-04-22T04:56:28.178Z,5.88
2023-04-22T04:58:31.783Z,7.25
2023-04-22T05:00:54.799Z,6.32
2023-04-22T05:02:59.102Z,6.30
2023-04-22T05:05:02.627Z,6.07
2023-04-22T05:07:06.590Z,5.95
2023-04-22T05:09:11.589Z,6.10
2023-04-22T05:11:14.844Z,6.30
2023-04-22T05:13:20.383Z,6.07
2023-04-22T05:15:25.650Z,6.38
2023-04-22T05:17:30.542Z,6.65
2023-04-22T05:19:33.848Z,6.10
2023-04-22T05:21:38.307Z,5.70
2023-04-22T05:23:41.550Z,5.90
2023-04-22T05:25:44.924Z,6.53
2023-04-22T05:27:50.187Z,6.57
2023-04-22T05:29:55.260Z,6.40
2023-04-22T05:32:03.185Z,6.25
2023-04-22T05:34:08.543Z,6.53
2023-04-22T05:36:11.864Z,6.10
2023-04-22T05:38:15.186Z,6.30
2023-04-22T05:40:19.280Z,5.93
2023-04-22T05:42:22.671Z,6.28
2023-04-22T05:44:26.169Z,6.43
2023-04-22T05:46:29.777Z,6.55
2023-04-22T05:48:33.145Z,6.60
2023-04-22T05:50:41.419Z,6.20
2023-04-22T05:52:45.178Z,6.72
2023-04-22T05:54:51.330Z,6.72
2023-04-22T05:56:54.619Z,6.55
2023-04-22T05:58:57.863Z,6.55
2023-04-22T06:01:01.749Z,6.13
2023-04-22T06:03:28.279Z,6.47
2023-04-22T06:05:33.440Z,6.85
2023-04-22T06:07:38.090Z,6.47
2023-04-22T06:09:43.337Z,14.20
2023-04-22T06:11:46.808Z,7.00
2023-04-22T06:13:50.615Z,6.88
2023-04-22T06:15:54.226Z,7.20
2023-04-22T06:17:57.573Z,6.60
2023-04-22T06:20:00.879Z,6.68
2023-04-22T06:22:04.159Z,6.97
2023-04-22T06:24:10.344Z,6.97
2023-04-22T06:26:14.017Z,7.50
2023-04-22T06:28:17.281Z,7.00
2023-04-22T06:30:22.233Z,6.95
2023-04-22T06:32:25.524Z,6.85
2023-04-22T06:34:28.887Z,6.90
2023-04-22T06:36:33.778Z,7.13
2023-04-22T06:38:38.837Z,6.90
2023-04-22T06:41:15.805Z,6.50
2023-04-22T06:43:21.226Z,6.53
2023-04-22T06:45:43.465Z,7.00
2023-04-22T06:48:05.487Z,6.70
2023-04-22T06:50:22.811Z,6.68
2023-04-22T06:52:32.013Z,7.20
2023-04-22T06:54:35.686Z,7.38
2023-04-22T06:56:40.611Z,6.45
2023-04-22T06:58:43.967Z,6.78
2023-04-22T07:00:47.420Z,6.85
2023-04-22T07:02:50.924Z,6.80
2023-04-22T07:04:54.277Z,7.32
2023-04-22T07:06:57.594Z,7.13
2023-04-22T07:09:01.522Z,6.85
2023-04-22T07:11:04.899Z,6.72
2023-04-22T07:13:20.176Z,6.32
2023-04-22T07:15:23.458Z,6.47
2023-04-22T07:17:27.098Z,7.20
2023-04-22T07:19:32.493Z,6.72
2023-04-22T07:21:38.311Z,7.10
2023-04-22T07:23:41.829Z,6.95
2023-04-22T07:25:45.146Z,7.10
2023-04-22T07:27:48.487Z,7.00
2023-04-22T07:29:55.500Z,6.95
2023-04-22T07:31:59.528Z,6.85
2023-04-22T07:34:03.186Z,7.13
2023-04-22T07:36:07.978Z,6.97
2023-04-22T07:38:14.528Z,7.28
2023-04-22T07:40:19.196Z,6.70
2023-04-22T07:42:25.125Z,7.05
2023-04-22T07:44:30.295Z,7.05
2023-04-22T07:46:35.592Z,7.45
2023-04-22T07:48:39.637Z,6.63
2023-04-22T07:50:42.855Z,6.35
2023-04-22T07:52:46.766Z,6.45
2023-04-22T07:54:51.428Z,7.55
2023-04-22T07:56:55.088Z,6.53
2023-04-22T07:58:58.330Z,7.22
2023-04-22T08:01:01.771Z,6.80
2023-04-22T08:03:10.457Z,6.80
2023-04-22T08:05:13.952Z,6.38
2023-04-22T08:07:32.653Z,6.65
2023-04-22T08:09:37.461Z,7.07
2023-04-22T08:11:41.323Z,6.90
2023-04-22T08:13:45.613Z,6.60
2023-04-22T08:15:48.937Z,7.18
2023-04-22T08:17:52.340Z,6.70
2023-04-22T08:19:56.970Z,6.80
2023-04-22T08:22:00.286Z,7.18
2023-04-22T08:24:03.584Z,6.68
2023-04-22T08:26:08.329Z,6.35
2023-04-22T08:28:11.654Z,6.60
2023-04-22T08:30:15.323Z,6.63
2023-04-22T08:32:19.850Z,6.43
2023-04-22T08:34:24.853Z,6.38
2023-04-22T08:36:29.721Z,6.35
2023-04-22T08:38:32.999Z,6.50
2023-04-22T08:40:36.616Z,7.05
2023-04-22T08:42:41.184Z,6.43
2023-04-22T08:44:45.943Z,6.18
2023-04-22T08:46:50.148Z,6.65
2023-04-22T08:48:55.301Z,6.80
2023-04-22T08:50:59.426Z,6.22
2023-04-22T08:53:04.087Z,6.43
2023-04-22T08:55:08.397Z,6.13
2023-04-22T08:57:12.193Z,6.15
2023-04-22T08:59:15.517Z,6.80
2023-04-22T09:01:19.195Z,6.53
2023-04-22T09:03:23.460Z,6.25
2023-04-22T09:05:28.721Z,6.32
2023-04-22T09:07:33.290Z,7.05
2023-04-22T09:09:39.009Z,6.90
2023-04-22T09:11:43.034Z,6.13
2023-04-22T09:13:46.288Z,6.72
2023-04-22T09:15:49.507Z,6.25
2023-04-22T09:17:53.566Z,6.03
2023-04-22T09:19:59.161Z,6.45
2023-04-22T09:22:03.010Z,5.88
2023-04-22T09:24:08.718Z,6.53
2023-04-22T09:26:15.101Z,6.15
2023-04-22T09:28:20.190Z,6.30
2023-04-22T09:30:26.204Z,6.10
2023-04-22T09:32:29.491Z,6.53
2023-04-22T09:34:32.783Z,6.60
2023-04-22T09:36:37.743Z,6.57
2023-04-22T09:38:41.139Z,5.80
2023-04-22T09:40:45.635Z,6.47
2023-04-22T09:42:54.960Z,6.05
2023-04-22T09:45:01.974Z,5.63
2023-04-22T09:47:05.766Z,5.85
2023-04-22T09:49:09.067Z,5.97
2023-04-22T09:51:17.308Z,5.65
2023-04-22T09:53:21.733Z,5.30
2023-04-22T09:55:26.409Z,5.28
2023-04-22T09:57:29.738Z,5.88
2023-04-22T09:59:34.509Z,4.93
2023-04-22T10:01:39.490Z,5.05
2023-04-22T10:03:43.108Z,5.22
2023-04-22T10:05:46.760Z,5.05
2023-04-22T10:07:50.247Z,5.25
2023-04-22T10:09:53.566Z,5.60
2023-04-22T10:11:58.700Z,5.40
2023-04-22T10:14:02.102Z,5.00
2023-04-22T10:16:07.565Z,7.10
2023-04-22T10:18:14.820Z,7.22
2023-04-22T10:20:20.168Z,6.20
2023-04-22T10:22:23.915Z,5.80
2023-04-22T10:24:28.377Z,5.97
2023-04-22T10:26:41.836Z,5.00
2023-04-22T10:28:45.619Z,5.38
2023-04-22T10:30:49.372Z,5.10
2023-04-22T10:32:54.555Z,4.60
2023-04-22T10:35:12.602Z,4.75
2023-04-22T10:37:19.396Z,4.38
2023-04-22T10:39:23.414Z,4.60
2023-04-22T10:41:30.213Z,5.05
2023-04-22T10:43:44.452Z,4.30
2023-04-22T10:45:47.860Z,4.47
2023-04-22T10:47:51.247Z,4.40
2023-04-22T10:50:11.238Z,4.03
2023-04-22T10:52:29.902Z,4.30
2023-04-22T10:54:59.030Z,3.83
2023-04-22T10:57:03.476Z,3.63
2023-04-22T10:59:17.249Z,3.72
2023-04-22T11:01:20.581Z,3.85
2023-04-22T11:03:29.947Z,3.90
2023-04-22T11:05:35.851Z,4.38
2023-04-22T11:07:40.763Z,4.00
2023-04-22T11:09:46.525Z,3.95
2023-04-22T11:11:51.319Z,4.25
2023-04-22T11:13:55.473Z,4.10
2023-04-22T11:15:58.844Z,4.50
2023-04-22T11:18:02.216Z,4.55
2023-04-22T11:20:08.022Z,3.90
2023-04-22T11:22:14.455Z,4.88
2023-04-22T11:24:20.710Z,4.00
2023-04-22T11:26:35.136Z,4.13
2023-04-22T11:28:47.647Z,4.13
2023-04-22T11:30:51.377Z,4.28
2023-04-22T11:32:57.040Z,4.47
2023-04-22T11:35:04.606Z,4.47
2023-04-22T11:37:07.873Z,3.95
2023-04-22T11:39:15.187Z,3.90
2023-04-22T11:41:23.189Z,3.80
2023-04-22T11:43:26.570Z,3.90
2023-04-22T11:45:31.346Z,4.10
2023-04-22T11:47:35.787Z,3.97
2023-04-22T11:49:40.092Z,4.10
2023-04-22T11:52:00.898Z,4.35
2023-04-22T11:54:04.900Z,4.25
2023-04-22T11:56:09.612Z,3.95
2023-04-22T11:58:14.594Z,4.15
2023-04-22T12:00:18.561Z,3.72
2023-04-22T12:02:21.960Z,4.05
2023-04-22T12:04:25.417Z,3.78
2023-04-22T12:06:32.384Z,3.80
2023-04-22T12:08:39.788Z,3.67
2023-04-22T12:10:44.769Z,3.40
2023-04-22T12:12:51.598Z,3.67
2023-04-22T12:14:55.012Z,3.95
2023-04-22T12:16:58.402Z,4.53
2023-04-22T12:19:05.045Z,4.63
2023-04-22T12:21:11.191Z,3.70
2023-04-22T12:23:15.920Z,3.78
2023-04-22T12:25:20.563Z,4.03
2023-04-22T12:27:23.863Z,3.90
2023-04-22T12:29:35.070Z,3.45
2023-04-22T12:33:42.428Z,3.63
2023-04-22T12:35:47.139Z,3.83
2023-04-22T12:37:51.286Z,4.18
2023-04-22T12:39:55.711Z,4.82
2023-04-22T12:41:59.055Z,4.25
2023-04-22T12:44:02.388Z,3.92
2023-04-22T12:46:08.149Z,5.55
2023-04-22T12:48:11.782Z,4.15
2023-04-22T12:50:15.167Z,3.97
2023-04-22T12:52:18.512Z,4.13
2023-04-22T12:54:22.177Z,3.78
2023-04-22T12:56:25.730Z,4.55
2023-04-22T12:58:29.125Z,3.50
2023-04-22T13:00:32.454Z,3.75
2023-04-22T13:02:37.351Z,3.35
2023-04-22T13:04:40.985Z,4.28
2023-04-22T13:06:44.492Z,3.50
2023-04-22T13:08:48.712Z,7.20
2023-04-22T13:10:52.069Z,4.00
2023-04-22T13:13:00.544Z,4.70
2023-04-22T13:15:13.602Z,7.10
2023-04-22T13:17:16.939Z,3.40
2023-04-22T13:19:21.642Z,3.40
2023-04-22T13:21:24.968Z,4.47
2023-04-22T13:23:28.339Z,5.18
2023-04-22T13:25:31.827Z,4.00
2023-04-22T13:27:35.283Z,3.70
2023-04-22T13:29:39.234Z,12.07
2023-04-22T13:31:44.039Z,7.93
2023-04-22T13:33:47.376Z,11.38
2023-04-22T13:35:52.208Z,5.20
2023-04-22T13:37:55.499Z,3.40
2023-04-22T13:39:58.867Z,3.67
2023-04-22T13:42:02.890Z,3.50
2023-04-22T13:44:06.281Z,3.28
2023-04-22T13:46:09.633Z,3.10
2023-04-22T13:48:13.089Z,2.97
2023-04-22T13:50:16.698Z,3.33
2023-04-22T13:52:21.822Z,3.05
2023-04-22T13:54:26.125Z,2.80
2023-04-22T13:56:29.435Z,3.22
2023-04-22T13:58:32.860Z,3.58
2023-04-22T14:00:36.737Z,3.08
2023-04-22T14:02:40.370Z,2.95
2023-04-22T14:04:43.787Z,2.97
2023-04-22T14:06:47.101Z,3.20
2023-04-22T14:08:51.881Z,2.97
2023-04-22T14:10:55.607Z,3.50
2023-04-22T14:12:58.884Z,3.13
2023-04-22T14:15:02.500Z,3.08
2023-04-22T14:17:06.197Z,3.05
2023-04-22T14:19:09.656Z,3.35
2023-04-22T14:21:13.554Z,3.35
2023-04-22T14:23:17.000Z,2.88
2023-04-22T14:25:21.973Z,3.25
2023-04-22T14:27:25.364Z,3.20
2023-04-22T14:29:29.961Z,3.05
2023-04-22T14:31:33.392Z,3.28
2023-04-22T14:33:37.073Z,3.30
2023-04-22T14:35:40.976Z,3.00
2023-04-22T14:37:45.216Z,3.38
2023-04-22T14:39:48.597Z,3.00
2023-04-22T14:41:53.294Z,2.90
2023-04-22T14:43:56.731Z,2.90
2023-04-22T14:46:00.319Z,3.05
2023-04-22T14:48:03.799Z,3.15
2023-04-22T14:50:08.217Z,3.20
2023-04-22T14:52:11.929Z,3.50
2023-04-22T14:54:15.252Z,3.55
2023-04-22T14:56:18.882Z,3.33
2023-04-22T14:58:23.959Z,3.20
2023-04-22T15:00:28.015Z,3.30
2023-04-22T15:02:33.269Z,3.40
2023-04-22T15:04:37.080Z,3.00
2023-04-22T15:06:40.470Z,2.97
2023-04-22T15:08:43.793Z,2.67
2023-04-22T15:10:47.185Z,2.88
2023-04-22T15:12:50.610Z,2.97
2023-04-22T15:14:55.545Z,3.58
2023-04-22T15:16:59.004Z,3.20
2023-04-22T15:19:02.331Z,3.17
2023-04-22T15:21:10.198Z,3.60
2023-04-22T15:23:13.535Z,3.47
2023-04-22T15:25:18.238Z,2.85
2023-04-22T15:27:21.909Z,3.22
2023-04-22T15:29:25.302Z,3.47
2023-04-22T15:31:30.069Z,2.95
2023-04-22T15:33:33.505Z,2.97
2023-04-22T15:35:36.818Z,3.22
2023-04-22T15:37:40.459Z,3.17
2023-04-22T15:39:44.522Z,2.92
2023-04-22T15:41:47.821Z,3.78
2023-04-22T15:43:52.146Z,3.15
2023-04-22T15:45:58.383Z,3.10
2023-04-22T15:48:03.239Z,3.00
2023-04-22T15:50:09.062Z,2.90
2023-04-22T15:52:12.899Z,3.08
2023-04-22T15:54:16.094Z,3.35
2023-04-22T15:56:19.455Z,3.20
2023-04-22T15:58:22.692Z,3.15
2023-04-22T16:00:26.486Z,3.40
2023-04-22T16:02:29.978Z,3.10
2023-04-22T16:04:34.888Z,3.05
2023-04-22T16:06:38.932Z,3.03
2023-04-22T16:08:42.280Z,3.15
2023-04-22T16:10:45.518Z,3.20
2023-04-22T16:12:48.774Z,3.10
2023-04-22T16:14:52.160Z,3.40
2023-04-22T16:16:55.467Z,3.30
2023-04-22T16:18:59.374Z,3.10
2023-04-22T16:21:06.714Z,3.10
2023-04-22T16:23:09.954Z,3.28
2023-04-22T16:25:13.258Z,3.78
2023-04-22T16:27:19.273Z,3.60
2023-04-22T16:29:22.653Z,3.30
2023-04-22T16:31:26.212Z,3.35
2023-04-22T16:33:29.707Z,3.40
2023-04-22T16:35:33.380Z,3.22
2023-04-22T16:37:38.059Z,3.38
2023-04-22T16:39:41.637Z,3.50
2023-04-22T16:41:45.018Z,3.63
2023-04-22T16:43:48.284Z,3.40
2023-04-22T16:45:51.607Z,3.70
2023-04-22T16:47:54.902Z,2.85
2023-04-22T16:49:58.195Z,3.17
2023-04-22T16:52:01.442Z,3.20
2023-04-22T16:54:06.372Z,3.17
2023-04-22T16:56:09.607Z,3.20
2023-04-22T16:58:12.946Z,3.10
2023-04-22T17:00:16.650Z,2.97
2023-04-22T17:02:20.111Z,3.00
2023-04-22T17:04:23.872Z,3.85
2023-04-22T17:06:28.029Z,2.83
2023-04-22T17:08:31.423Z,3.35
2023-04-22T17:10:41.364Z,3.03
2023-04-22T17:12:46.367Z,3.28
2023-04-22T17:14:50.851Z,3.70
2023-04-22T17:16:54.181Z,3.58
2023-04-22T17:18:57.370Z,3.88
2023-04-22T17:21:00.575Z,3.60
2023-04-22T17:23:04.513Z,4.03
2023-04-22T17:25:08.474Z,4.03
2023-04-22T17:27:15.084Z,3.90
2023-04-22T17:29:21.506Z,3.30
2023-04-22T17:31:25.158Z,3.70
2023-04-22T17:33:29.175Z,3.70
2023-04-22T17:35:32.385Z,3.38
2023-04-22T17:37:35.622Z,3.42
2023-04-22T17:39:39.944Z,3.30
2023-04-22T17:41:43.308Z,3.50
2023-04-22T17:43:48.052Z,3.33
2023-04-22T17:45:51.408Z,3.20
2023-04-22T17:47:55.308Z,3.15
2023-04-22T17:49:58.624Z,3.30
2023-04-22T17:52:01.851Z,3.20
2023-04-22T17:54:05.458Z,3.90
2023-04-22T17:56:08.844Z,3.63
2023-04-22T17:58:12.343Z,3.40
2023-04-22T18:00:18.185Z,3.40
2023-04-22T18:02:22.083Z,3.67
2023-04-22T18:04:26.554Z,3.80
2023-04-22T18:06:29.854Z,3.33
2023-04-22T18:08:33.069Z,3.20
2023-04-22T18:10:36.277Z,3.60
2023-04-22T18:12:39.839Z,3.55
2023-04-22T18:14:43.303Z,3.42
2023-04-22T18:16:48.099Z,5.90
2023-04-22T18:18:51.390Z,3.83
2023-04-22T18:20:58.590Z,4.20
2023-04-22T18:23:02.228Z,3.55
2023-04-22T18:25:06.491Z,3.45
2023-04-22T18:27:10.011Z,3.42
2023-04-22T18:29:13.365Z,3.22
2023-04-22T18:31:16.664Z,4.10
2023-04-22T18:33:21.308Z,3.20
2023-04-22T18:35:24.683Z,3.38
2023-04-22T18:37:30.784Z,3.60
2023-04-22T18:39:34.045Z,3.42
2023-04-22T18:41:38.618Z,3.35
2023-04-22T18:43:42.098Z,3.30
2023-04-22T18:45:45.476Z,3.60
2023-04-22T18:47:48.715Z,3.38
2023-04-22T18:49:53.357Z,3.63
2023-04-22T18:51:56.985Z,3.22
2023-04-22T18:54:01.449Z,3.20
2023-04-22T18:56:04.818Z,3.13
2023-04-22T18:58:08.121Z,3.47
2023-04-22T19:00:13.114Z,3.40
2023-04-22T19:02:17.166Z,3.17
2023-04-22T19:04:21.014Z,3.00
2023-04-22T19:06:27.280Z,3.45
2023-04-22T19:08:30.612Z,3.35
2023-04-22T19:10:34.252Z,3.15
2023-04-22T19:12:37.561Z,3.50
2023-04-22T19:14:41.224Z,4.05
2023-04-22T19:16:44.790Z,4.70
2023-04-22T19:18:48.759Z,4.00
2023-04-22T19:20:52.126Z,3.95
2023-04-22T19:22:57.006Z,4.45
2023-04-22T19:25:01.118Z,3.85
2023-04-22T19:27:07.101Z,4.60
2023-04-22T19:29:10.807Z,4.47
2023-04-22T19:31:14.306Z,4.40
2023-04-22T19:33:17.664Z,4.30
2023-04-22T19:35:21.209Z,4.35
2023-04-22T19:37:24.584Z,3.90
2023-04-22T19:39:29.206Z,4.25
2023-04-22T19:41:33.528Z,3.90
2023-04-22T19:43:37.928Z,3.53
2023-04-22T19:45:41.175Z,3.90
2023-04-22T19:47:45.260Z,3.47
2023-04-22T19:49:49.070Z,3.72
2023-04-22T19:51:53.607Z,3.70
2023-04-22T19:53:58.755Z,3.90
2023-04-22T19:56:03.943Z,4.07
2023-04-22T19:58:07.364Z,3.40
2023-04-22T20:00:12.208Z,4.50
2023-04-22T20:02:18.723Z,3.55
2023-04-22T20:04:23.178Z,3.58
2023-04-22T20:06:28.180Z,3.08
2023-04-22T20:08:31.991Z,3.60
2023-04-22T20:10:35.776Z,3.15
2023-04-22T20:12:41.468Z,3.20
2023-04-22T20:14:45.429Z,3.28
2023-04-22T20:16:49.920Z,3.00
2023-04-22T20:18:53.804Z,3.42
2023-04-22T20:20:59.062Z,3.25
2023-04-22T20:23:09.788Z,3.20
2023-04-22T20:25:14.867Z,3.28
2023-04-22T20:27:18.124Z,3.47
2023-04-22T20:29:23.253Z,3.33
2023-04-22T20:31:26.766Z,3.05
2023-04-22T20:33:30.158Z,3.10
2023-04-22T20:35:35.721Z,3.38
2023-04-22T20:37:40.167Z,3.10
2023-04-22T20:39:44.895Z,3.20
2023-04-22T20:41:49.044Z,3.03
2023-04-22T20:43:52.446Z,3.30
2023-04-22T20:45:57.070Z,4.10
2023-04-22T20:48:00.426Z,3.30
2023-04-22T20:50:04.312Z,2.97
2023-04-22T20:52:08.317Z,3.25
2023-04-22T20:54:25.402Z,3.63
2023-04-22T20:56:32.533Z,3.95
2023-04-22T20:58:35.739Z,4.10
2023-04-22T21:00:39.174Z,4.80
2023-04-22T21:02:45.516Z,3.63
2023-04-22T21:04:49.292Z,3.03
2023-04-22T21:06:54.627Z,3.83
2023-04-22T21:08:58.256Z,3.50
2023-04-22T21:11:01.978Z,3.50
2023-04-22T21:13:05.687Z,3.35
2023-04-22T21:15:10.225Z,3.10
2023-04-22T21:17:21.658Z,3.40
2023-04-22T21:21:34.047Z,3.50
2023-04-22T21:23:37.807Z,3.33
2023-04-22T21:25:41.392Z,3.50
2023-04-22T21:27:45.037Z,3.33
2023-04-22T21:29:49.741Z,3.95
2023-04-22T21:32:07.383Z,3.90
2023-04-22T21:34:12.258Z,3.92
2023-04-22T21:36:17.030Z,5.00
2023-04-22T21:38:20.794Z,4.72
2023-04-22T21:40:24.164Z,4.88
2023-04-22T21:42:27.746Z,6.55
2023-04-22T21:44:31.023Z,5.32
2023-04-22T21:46:34.416Z,4.05
2023-04-22T21:48:37.672Z,4.22
2023-04-22T21:50:41.121Z,3.60
2023-04-22T21:52:45.834Z,3.97
2023-04-22T21:54:49.117Z,3.80
2023-04-22T21:56:52.658Z,3.97
2023-04-22T21:58:56.081Z,4.40
2023-04-22T22:00:59.386Z,4.07
2023-04-22T22:03:02.868Z,4.10
2023-04-22T22:05:07.160Z,4.43
2023-04-22T22:07:12.255Z,4.10
2023-04-22T22:09:17.054Z,4.10
2023-04-22T22:11:30.232Z,3.97
2023-04-22T22:13:34.530Z,4.13
2023-04-22T22:15:37.962Z,4.47
2023-04-22T22:17:41.410Z,4.88
2023-04-22T22:19:45.442Z,4.10
2023-04-22T22:21:48.689Z,4.30
2023-04-22T22:23:51.985Z,3.97
2023-04-22T22:25:56.809Z,4.40
2023-04-22T22:28:00.431Z,3.95
2023-04-22T22:30:04.644Z,4.18
2023-04-22T22:32:08.281Z,4.28
2023-04-22T22:34:11.603Z,4.43
2023-04-22T22:36:15.055Z,4.25
2023-04-22T22:38:18.385Z,4.22
2023-04-22T22:40:21.794Z,4.60
2023-04-22T22:42:26.445Z,4.47
2023-04-22T22:44:29.717Z,4.50
2023-04-22T22:46:32.976Z,4.85
2023-04-22T22:48:36.326Z,4.50
2023-04-22T22:50:39.911Z,4.53
2023-04-22T22:52:43.210Z,4.72
2023-04-22T22:54:46.545Z,4.90
2023-04-22T22:56:49.834Z,4.60
2023-04-22T22:58:54.448Z,4.75
2023-04-22T23:00:57.864Z,4.75
2023-04-22T23:03:01.746Z,5.30
2023-04-22T23:05:05.636Z,5.05
2023-04-22T23:07:09.243Z,4.65
2023-04-22T23:09:12.464Z,4.72
2023-04-22T23:11:15.711Z,5.30
2023-04-22T23:13:20.970Z,5.03
2023-04-22T23:15:25.604Z,5.57
2023-04-22T23:17:28.968Z,4.85
2023-04-22T23:19:32.631Z,5.35
2023-04-22T23:21:36.970Z,5.45
2023-04-22T23:23:41.784Z,5.47
2023-04-22T23:25:45.383Z,5.47
2023-04-22T23:27:49.927Z,5.05
2023-04-22T23:29:53.648Z,6.43
2023-04-22T23:32:00.406Z,6.10
2023-04-22T23:34:05.510Z,6.05
2023-04-22T23:36:11.349Z,6.38
2023-04-22T23:38:14.638Z,6.43
2023-04-22T23:40:17.966Z,6.25
2023-04-22T23:42:21.309Z,6.28
2023-04-22T23:44:24.654Z,6.47
2023-04-22T23:46:28.224Z,6.13
2023-04-22T23:48:33.138Z,6.32
2023-04-22T23:50:36.783Z,6.78
2023-04-22T23:52:41.448Z,6.63
2023-04-22T23:54:45.978Z,6.57
2023-04-22T23:56:49.943Z,6.70
2023-04-22T23:58:53.781Z,7.20
